createdAt,value
2023-04-13T00:01:57.729Z,30.40
2023-04-13T00:04:05.762Z,30.40
2023-04-13T00:06:13.066Z,30.40
2023-04-13T00:08:23.772Z,30.40
2023-04-13T00:10:30.954Z,30.40
2023-04-13T00:12:38.447Z,30.50
2023-04-13T00:14:45.381Z,30.50
2023-04-13T00:16:57.810Z,30.50
2023-04-13T00:19:05.318Z,30.60
2023-04-13T00:21:13.261Z,30.60
2023-04-13T00:23:20.089Z,30.60
2023-04-13T00:25:27.217Z,30.70
2023-04-13T00:27:34.252Z,30.70
2023-04-13T00:29:41.425Z,30.70
2023-04-13T00:31:48.816Z,30.70
2023-04-13T00:33:58.136Z,30.70
2023-04-13T00:36:07.026Z,30.80
2023-04-13T00:38:14.815Z,30.80
2023-04-13T00:40:22.051Z,30.80
2023-04-13T00:42:29.380Z,30.90
2023-04-13T00:44:36.256Z,30.90
2023-04-13T00:46:47.499Z,30.90
2023-04-13T00:48:56.617Z,30.90
2023-04-13T00:51:04.057Z,31.00
2023-04-13T00:53:14.148Z,31.00
2023-04-13T00:55:23.431Z,31.10
2023-04-13T00:57:33.580Z,31.10
2023-04-13T00:59:41.373Z,31.20
2023-04-13T01:01:51.868Z,31.20
2023-04-13T01:04:01.215Z,31.20
2023-04-13T01:06:19.200Z,31.30
2023-04-13T01:08:36.269Z,31.30
2023-04-13T01:10:50.769Z,31.40
2023-04-13T01:13:07.627Z,31.40
2023-04-13T01:15:19.722Z,31.50
2023-04-13T01:17:30.851Z,31.50
2023-04-13T01:19:53.899Z,31.50
2023-04-13T01:22:01.592Z,31.60
2023-04-13T01:24:31.560Z,31.60
2023-04-13T01:26:53.440Z,31.70
2023-04-13T01:29:02.355Z,31.70
2023-04-13T01:31:12.640Z,31.80
2023-04-13T01:33:20.304Z,31.90
2023-04-13T01:35:28.739Z,31.90
2023-04-13T01:37:37.945Z,32.00
2023-04-13T01:39:45.132Z,32.00
2023-04-13T01:42:18.473Z,32.10
2023-04-13T01:44:31.925Z,32.20
2023-04-13T01:46:40.497Z,32.20
2023-04-13T01:48:57.528Z,32.30
2023-04-13T01:51:26.886Z,32.40
2023-04-13T01:53:41.132Z,32.50
2023-04-13T01:55:51.380Z,32.50
2023-04-13T01:57:59.481Z,32.60
2023-04-13T02:00:13.612Z,32.70
2023-04-13T02:02:22.311Z,32.70
2023-04-13T02:04:29.374Z,32.80
2023-04-13T02:06:39.579Z,32.90
2023-04-13T02:08:49.504Z,32.90
2023-04-13T02:10:58.707Z,33.00
2023-04-13T02:13:06.817Z,33.00
2023-04-13T02:15:16.951Z,33.10
2023-04-13T02:17:26.517Z,33.20
2023-04-13T02:19:33.625Z,33.20
2023-04-13T02:21:43.721Z,33.30
2023-04-13T02:23:51.416Z,33.30
2023-04-13T02:25:59.318Z,33.40
2023-04-13T02:28:06.495Z,33.50
2023-04-13T02:30:16.083Z,33.60
2023-04-13T02:32:23.329Z,33.60
2023-04-13T02:34:30.716Z,33.70
2023-04-13T02:36:38.259Z,33.80
2023-04-13T02:38:49.010Z,33.80
2023-04-13T02:41:05.516Z,33.90
2023-04-13T02:43:13.259Z,34.00
2023-04-13T02:45:23.666Z,34.00
2023-04-13T02:47:31.568Z,34.10
2023-04-13T02:49:38.871Z,34.20
2023-04-13T02:52:01.639Z,34.30
2023-04-13T02:54:22.492Z,34.30
2023-04-13T02:56:31.924Z,34.30
2023-04-13T02:58:39.361Z,34.40
2023-04-13T03:00:56.440Z,34.40
2023-04-13T03:03:05.581Z,34.40
2023-04-13T03:05:20.673Z,34.50
2023-04-13T03:07:28.012Z,34.50
2023-04-13T03:09:35.543Z,34.60
2023-04-13T03:11:43.033Z,34.70
2023-04-13T03:13:55.129Z,34.80
2023-04-13T03:16:05.746Z,34.90
2023-04-13T03:18:13.027Z,35.00
2023-04-13T03:20:21.864Z,35.10
2023-04-13T03:22:35.427Z,35.10
2023-04-13T03:24:43.582Z,35.20
2023-04-13T03:26:56.201Z,35.20
2023-04-13T03:29:09.782Z,35.30
2023-04-13T03:31:23.467Z,35.30
2023-04-13T03:33:32.433Z,35.40
2023-04-13T03:35:40.947Z,35.50
2023-04-13T03:37:55.808Z,35.60
2023-04-13T03:40:22.038Z,35.70
2023-04-13T03:42:33.109Z,35.80
2023-04-13T03:44:41.321Z,35.90
2023-04-13T03:46:50.442Z,35.90
2023-04-13T03:49:11.756Z,36.00
2023-04-13T03:51:19.505Z,36.10
2023-04-13T03:53:31.599Z,36.20
2023-04-13T03:55:38.930Z,36.30
2023-04-13T03:57:50.417Z,36.30
2023-04-13T04:00:04.815Z,36.40
2023-04-13T04:02:32.052Z,36.40
2023-04-13T04:04:40.266Z,36.40
2023-04-13T04:06:48.119Z,36.50
2023-04-13T04:08:56.836Z,36.40
2023-04-13T04:11:32.792Z,36.40
2023-04-13T04:13:40.535Z,36.30
2023-04-13T04:15:51.975Z,36.20
2023-04-13T04:18:01.990Z,36.20
2023-04-13T04:20:11.550Z,36.00
2023-04-13T04:22:19.197Z,36.00
2023-04-13T04:24:28.526Z,36.00
2023-04-13T04:26:39.087Z,36.00
2023-04-13T04:28:46.887Z,36.00
2023-04-13T04:31:02.307Z,36.20
2023-04-13T04:33:11.648Z,36.20
2023-04-13T04:35:21.846Z,36.30
2023-04-13T04:37:39.057Z,36.50
2023-04-13T04:39:50.961Z,36.50
2023-04-13T04:42:04.593Z,36.70
2023-04-13T04:44:13.869Z,36.70
2023-04-13T04:46:23.214Z,36.80
2023-04-13T04:48:34.682Z,36.70
2023-04-13T04:50:45.809Z,36.70
2023-04-13T04:52:56.774Z,36.70
2023-04-13T04:55:07.128Z,36.70
2023-04-13T04:57:15.958Z,36.70
2023-04-13T04:59:23.338Z,36.80
2023-04-13T05:01:37.650Z,36.80
2023-04-13T05:03:52.088Z,36.90
2023-04-13T05:06:06.283Z,37.00
2023-04-13T05:08:14.392Z,37.10
2023-04-13T05:10:25.718Z,37.10
2023-04-13T05:12:37.174Z,37.20
2023-04-13T05:14:45.149Z,37.30
2023-04-13T05:16:53.561Z,37.40
2023-04-13T05:19:13.665Z,37.50
2023-04-13T05:21:44.276Z,37.60
2023-04-13T05:23:52.277Z,37.70
2023-04-13T05:26:00.789Z,37.70
2023-04-13T05:28:07.776Z,37.80
2023-04-13T05:30:15.975Z,37.90
2023-04-13T05:32:23.928Z,38.00
2023-04-13T05:34:36.942Z,38.10
2023-04-13T05:36:51.852Z,38.20
2023-04-13T05:38:59.859Z,38.20
2023-04-13T05:41:09.853Z,38.30
2023-04-13T05:43:18.008Z,38.30
2023-04-13T05:45:29.910Z,38.40
2023-04-13T05:47:42.854Z,38.40
2023-04-13T05:49:56.548Z,38.40
2023-04-13T05:52:04.918Z,38.50
2023-04-13T05:54:32.571Z,38.60
2023-04-13T05:56:39.956Z,38.60
2023-04-13T05:58:47.494Z,38.70
2023-04-13T06:00:59.452Z,38.70
2023-04-13T06:03:12.060Z,38.80
2023-04-13T06:05:21.958Z,38.80
2023-04-13T06:07:31.937Z,38.90
2023-04-13T06:09:39.374Z,39.00
2023-04-13T06:11:46.454Z,39.00
2023-04-13T06:13:53.947Z,39.00
2023-04-13T06:16:01.305Z,39.10
2023-04-13T06:18:09.083Z,39.10
2023-04-13T06:20:16.582Z,39.10
2023-04-13T06:22:25.714Z,39.20
2023-04-13T06:24:33.001Z,39.20
2023-04-13T06:26:40.513Z,39.30
2023-04-13T06:28:47.745Z,39.30
2023-04-13T06:30:55.841Z,39.40
2023-04-13T06:33:03.019Z,39.40
2023-04-13T06:35:11.908Z,39.40
2023-04-13T06:37:26.157Z,39.40
2023-04-13T06:39:33.645Z,39.50
2023-04-13T06:41:40.790Z,39.50
2023-04-13T06:44:21.088Z,39.50
2023-04-13T06:46:33.090Z,39.50
2023-04-13T06:48:47.688Z,39.50
2023-04-13T06:50:58.598Z,39.50
2023-04-13T06:53:08.798Z,39.50
2023-04-13T06:55:16.908Z,39.50
2023-04-13T06:57:23.879Z,39.50
2023-04-13T06:59:31.314Z,39.60
2023-04-13T07:01:38.775Z,39.60
2023-04-13T07:03:46.679Z,39.40
2023-04-13T07:05:55.524Z,39.30
2023-04-13T07:08:03.018Z,39.20
2023-04-13T07:10:13.634Z,39.20
2023-04-13T07:12:21.626Z,39.30
2023-04-13T07:14:28.708Z,39.40
2023-04-13T07:16:36.304Z,39.40
2023-04-13T07:18:43.533Z,39.40
2023-04-13T07:20:51.007Z,39.50
2023-04-13T07:23:01.691Z,39.50
2023-04-13T07:25:11.478Z,39.50
2023-04-13T07:27:19.376Z,39.60
2023-04-13T07:29:27.331Z,39.60
2023-04-13T07:31:39.631Z,39.60
2023-04-13T07:33:47.405Z,39.60
2023-04-13T07:35:58.306Z,39.60
2023-04-13T07:38:08.081Z,39.60
2023-04-13T07:40:17.107Z,39.50
2023-04-13T07:42:28.741Z,39.50
2023-04-13T07:44:36.435Z,39.30
2023-04-13T07:46:44.776Z,39.10
2023-04-13T07:48:51.722Z,39.00
2023-04-13T07:51:04.329Z,39.00
2023-04-13T07:53:29.393Z,39.10
2023-04-13T07:55:40.102Z,39.10
2023-04-13T07:57:47.747Z,39.20
2023-04-13T07:59:55.230Z,39.30
2023-04-13T08:02:03.517Z,39.30
2023-04-13T08:04:13.916Z,39.20
2023-04-13T08:06:22.585Z,39.20
2023-04-13T08:08:31.221Z,39.10
2023-04-13T08:10:40.354Z,39.20
2023-04-13T08:12:47.866Z,39.20
2023-04-13T08:14:58.051Z,39.20
2023-04-13T08:17:07.116Z,39.30
2023-04-13T08:19:15.124Z,39.30
2023-04-13T08:21:27.530Z,39.30
2023-04-13T08:23:35.321Z,39.40
2023-04-13T08:25:45.730Z,39.30
2023-04-13T08:27:55.368Z,39.20
2023-04-13T08:30:04.146Z,39.00
2023-04-13T08:32:22.194Z,38.80
2023-04-13T08:34:31.249Z,38.70
2023-04-13T08:36:38.379Z,38.70
2023-04-13T08:38:47.951Z,38.80
2023-04-13T08:40:57.711Z,38.80
2023-04-13T08:43:10.375Z,38.90
2023-04-13T08:45:18.471Z,38.90
2023-04-13T08:47:29.525Z,38.90
2023-04-13T08:49:39.696Z,38.90
2023-04-13T08:51:48.368Z,38.90
2023-04-13T08:53:57.744Z,38.90
2023-04-13T08:56:13.122Z,38.90
2023-04-13T08:58:25.459Z,38.80
2023-04-13T09:00:32.854Z,38.80
2023-04-13T09:02:52.476Z,38.80
2023-04-13T09:05:16.938Z,38.90
2023-04-13T09:07:40.534Z,38.90
2023-04-13T09:09:55.598Z,38.80
2023-04-13T09:12:05.292Z,38.70
2023-04-13T09:14:13.751Z,38.60
2023-04-13T09:16:21.737Z,38.50
2023-04-13T09:18:31.977Z,38.40
2023-04-13T09:20:45.432Z,38.40
2023-04-13T09:22:53.441Z,38.40
2023-04-13T09:25:00.477Z,38.40
2023-04-13T09:27:09.833Z,38.40
2023-04-13T09:29:19.599Z,38.40
2023-04-13T09:31:27.282Z,38.40
2023-04-13T09:33:38.869Z,38.40
2023-04-13T09:35:46.616Z,38.30
2023-04-13T09:37:58.760Z,38.30
2023-04-13T09:40:16.642Z,38.30
2023-04-13T09:42:25.579Z,38.20
2023-04-13T09:44:35.823Z,38.20
2023-04-13T09:46:43.159Z,38.10
2023-04-13T09:49:00.564Z,38.20
2023-04-13T09:51:10.787Z,38.10
2023-04-13T09:53:18.433Z,38.10
2023-04-13T09:55:25.810Z,38.00
2023-04-13T09:57:35.446Z,38.00
2023-04-13T09:59:42.527Z,38.00
2023-04-13T10:01:50.289Z,38.00
2023-04-13T10:03:58.285Z,37.90
2023-04-13T10:06:08.869Z,37.80
2023-04-13T10:08:21.698Z,37.80
2023-04-13T10:10:32.309Z,37.70
2023-04-13T10:12:46.408Z,37.70
2023-04-13T10:15:02.385Z,37.60
2023-04-13T10:17:32.215Z,37.60
2023-04-13T10:19:44.205Z,37.50
2023-04-13T10:21:54.799Z,37.40
2023-04-13T10:24:02.774Z,37.40
2023-04-13T10:26:10.710Z,37.30
2023-04-13T10:28:19.991Z,37.30
2023-04-13T10:30:28.525Z,37.20
2023-04-13T10:32:35.918Z,37.20
2023-04-13T10:34:43.118Z,37.10
2023-04-13T10:36:52.709Z,37.10
2023-04-13T10:39:00.077Z,37.00
2023-04-13T10:41:08.219Z,37.00
2023-04-13T10:43:15.736Z,36.90
2023-04-13T10:45:27.282Z,36.90
2023-04-13T10:47:39.085Z,36.90
2023-04-13T10:49:47.731Z,36.80
2023-04-13T10:51:54.805Z,36.70
2023-04-13T10:54:08.283Z,36.70
2023-04-13T10:56:20.477Z,36.60
2023-04-13T10:58:29.950Z,36.60
2023-04-13T11:00:46.072Z,36.50
2023-04-13T11:02:56.194Z,36.40
2023-04-13T11:05:03.959Z,36.30
2023-04-13T11:07:12.212Z,36.30
2023-04-13T11:09:25.131Z,36.20
2023-04-13T11:11:32.415Z,36.20
2023-04-13T11:13:46.982Z,36.10
2023-04-13T11:16:04.138Z,36.10
2023-04-13T11:18:11.156Z,36.00
2023-04-13T11:20:18.454Z,35.90
2023-04-13T11:34:10.724Z,35.20
2023-04-13T11:38:54.444Z,35.20
2023-04-13T11:41:15.900Z,35.10
2023-04-13T11:43:24.365Z,35.10
2023-04-13T11:45:33.047Z,35.00
2023-04-13T11:47:40.066Z,35.00
2023-04-13T11:49:49.250Z,35.00
2023-04-13T11:51:56.344Z,34.90
2023-04-13T11:54:04.688Z,34.90
2023-04-13T11:56:12.286Z,34.90
2023-04-13T11:58:20.026Z,34.80
2023-04-13T12:00:27.565Z,34.80
2023-04-13T12:02:41.641Z,34.80
2023-04-13T12:05:00.999Z,34.80
2023-04-13T12:07:15.549Z,34.80
2023-04-13T12:09:36.981Z,34.70
2023-04-13T12:12:16.263Z,34.70
2023-04-13T12:14:48.897Z,34.70
2023-04-13T12:19:12.669Z,34.60
2023-04-13T12:21:23.648Z,34.60
2023-04-13T12:23:31.393Z,34.50
2023-04-13T12:25:39.318Z,34.50
2023-04-13T12:27:46.847Z,34.50
2023-04-13T12:29:54.129Z,34.50
2023-04-13T12:32:04.958Z,34.50
2023-04-13T12:34:12.183Z,34.40
2023-04-13T12:36:20.844Z,34.40
2023-04-13T12:38:29.653Z,34.40
2023-04-13T12:40:37.527Z,34.40
2023-04-13T12:42:46.024Z,34.40
2023-04-13T12:44:53.361Z,34.40
2023-04-13T12:47:00.346Z,34.40
2023-04-13T12:49:07.568Z,34.40
2023-04-13T12:51:14.393Z,34.30
2023-04-13T12:53:23.364Z,34.30
2023-04-13T12:55:30.752Z,34.30
2023-04-13T12:57:37.887Z,34.20
2023-04-13T12:59:44.811Z,34.20
2023-04-13T13:01:52.246Z,34.20
2023-04-13T13:03:59.208Z,34.10
2023-04-13T13:06:07.034Z,34.10
2023-04-13T13:08:13.942Z,34.10
2023-04-13T13:10:29.465Z,34.00
2023-04-13T13:12:37.006Z,34.00
2023-04-13T13:14:44.090Z,33.90
2023-04-13T13:16:51.567Z,34.00
2023-04-13T13:18:58.880Z,34.00
2023-04-13T13:21:05.684Z,33.90
2023-04-13T13:23:14.200Z,33.80
2023-04-13T13:25:22.761Z,33.80
2023-04-13T13:28:05.357Z,33.80
2023-04-13T13:29:58.219Z,33.80
2023-04-13T13:32:05.429Z,33.70
2023-04-13T13:34:12.803Z,33.70
2023-04-13T13:36:19.918Z,33.60
2023-04-13T13:38:26.746Z,33.60
2023-04-13T13:40:35.919Z,33.50
2023-04-13T13:44:53.231Z,33.40
2023-04-13T13:47:00.230Z,33.30
2023-04-13T13:49:08.901Z,33.20
2023-04-13T13:51:35.584Z,33.20
2023-04-13T13:53:45.427Z,33.10
2023-04-13T13:55:54.055Z,33.10
2023-04-13T13:58:01.328Z,33.10
2023-04-13T14:00:17.373Z,33.00
2023-04-13T14:02:24.543Z,32.90
2023-04-13T14:04:31.603Z,32.90
2023-04-13T14:06:38.611Z,32.90
2023-04-13T14:08:45.478Z,32.90
2023-04-13T14:10:54.307Z,33.00
2023-04-13T14:13:02.148Z,33.00
2023-04-13T14:15:10.761Z,32.90
2023-04-13T14:17:17.638Z,33.00
2023-04-13T14:19:24.865Z,32.90
2023-04-13T14:21:32.508Z,32.90
2023-04-13T14:23:41.324Z,32.80
2023-04-13T14:25:48.284Z,32.80
2023-04-13T14:27:57.546Z,32.80
2023-04-13T14:30:04.671Z,32.80
2023-04-13T14:32:12.203Z,32.80
2023-04-13T14:34:19.133Z,32.70
2023-04-13T14:36:26.516Z,32.70
2023-04-13T14:38:33.390Z,32.60
2023-04-13T14:40:40.522Z,32.60
2023-04-13T14:42:47.702Z,32.60
2023-04-13T14:44:56.830Z,32.60
2023-04-13T14:47:06.746Z,32.60
2023-04-13T14:49:15.809Z,32.60
2023-04-13T14:51:22.718Z,32.60
2023-04-13T14:53:30.017Z,32.60
2023-04-13T14:55:36.939Z,32.60
2023-04-13T14:57:44.273Z,32.50
2023-04-13T14:59:52.480Z,32.50
2023-04-13T15:02:03.196Z,32.40
2023-04-13T15:04:10.368Z,32.40
2023-04-13T15:06:17.617Z,32.40
2023-04-13T15:08:24.536Z,32.40
2023-04-13T15:10:31.721Z,32.30
2023-04-13T15:12:38.847Z,32.30
2023-04-13T15:14:47.822Z,32.30
2023-04-13T15:16:55.105Z,32.30
2023-04-13T15:19:04.787Z,32.20
2023-04-13T15:21:11.672Z,32.20
2023-04-13T15:23:20.043Z,32.20
2023-04-13T15:25:27.673Z,32.20
2023-04-13T15:27:35.577Z,32.20
2023-04-13T15:29:42.504Z,32.20
2023-04-13T15:31:50.057Z,32.20
2023-04-13T15:33:57.067Z,32.20
2023-04-13T15:36:06.040Z,32.30
2023-04-13T15:38:13.278Z,32.30
2023-04-13T15:40:22.954Z,32.30
2023-04-13T15:42:29.886Z,32.30
2023-04-13T15:44:37.375Z,32.30
2023-04-13T15:46:44.301Z,32.30
2023-04-13T15:48:51.898Z,32.30
2023-04-13T15:51:02.159Z,32.20
2023-04-13T15:53:11.373Z,32.20
2023-04-13T15:55:18.246Z,32.20
2023-04-13T15:57:25.388Z,32.20
2023-04-13T15:59:35.119Z,32.20
2023-04-13T16:01:49.619Z,32.10
2023-04-13T16:03:57.762Z,32.10
2023-04-13T16:06:05.595Z,32.20
2023-04-13T16:08:14.202Z,32.10
2023-04-13T16:10:21.832Z,32.10
2023-04-13T16:12:32.542Z,32.10
2023-04-13T16:14:42.902Z,32.10
2023-04-13T16:16:54.433Z,32.00
2023-04-13T16:19:01.987Z,32.10
2023-04-13T16:21:09.519Z,32.00
2023-04-13T16:23:18.134Z,32.10
2023-04-13T16:25:25.569Z,32.10
2023-04-13T16:27:32.495Z,32.10
2023-04-13T16:29:42.445Z,32.10
2023-04-13T16:31:50.726Z,32.10
2023-04-13T16:33:58.440Z,32.10
2023-04-13T16:36:05.364Z,32.10
2023-04-13T16:38:12.845Z,32.10
2023-04-13T16:40:21.523Z,32.00
2023-04-13T16:42:28.601Z,32.10
2023-04-13T16:44:36.189Z,32.00
2023-04-13T16:46:43.289Z,32.00
2023-04-13T16:48:50.146Z,32.00
2023-04-13T16:51:02.063Z,32.00
2023-04-13T16:53:08.344Z,32.00
2023-04-13T16:55:16.207Z,32.00
2023-04-13T16:57:24.814Z,31.90
2023-04-13T16:59:31.681Z,31.90
2023-04-13T17:01:39.871Z,31.90
2023-04-13T17:03:47.398Z,31.90
2023-04-13T17:05:54.200Z,31.90
2023-04-13T17:08:01.453Z,31.80
2023-04-13T17:10:09.436Z,31.80
2023-04-13T17:12:16.617Z,31.80
2023-04-13T17:14:25.181Z,31.80
2023-04-13T17:16:32.478Z,31.70
2023-04-13T17:18:39.498Z,31.70
2023-04-13T17:20:46.622Z,31.70
2023-04-13T17:22:53.548Z,31.70
2023-04-13T17:25:00.700Z,31.70
2023-04-13T17:27:07.612Z,31.60
2023-04-13T17:29:14.786Z,31.60
2023-04-13T17:31:23.338Z,31.60
2023-04-13T17:33:30.734Z,31.60
2023-04-13T17:35:37.633Z,31.60
2023-04-13T17:37:46.122Z,31.60
2023-04-13T17:39:53.046Z,31.60
2023-04-13T17:42:00.230Z,31.50
2023-04-13T17:44:07.308Z,31.50
2023-04-13T17:46:14.560Z,31.50
2023-04-13T17:48:23.309Z,31.50
2023-04-13T17:50:30.236Z,31.40
2023-04-13T17:52:37.409Z,31.40
2023-04-13T17:54:44.367Z,31.40
2023-04-13T17:56:51.683Z,31.30
2023-04-13T17:58:59.008Z,31.30
2023-04-13T18:01:10.938Z,31.30
2023-04-13T18:03:18.064Z,31.30
2023-04-13T18:05:27.777Z,31.30
2023-04-13T18:07:34.605Z,31.20
2023-04-13T18:09:41.938Z,31.20
2023-04-13T18:11:48.814Z,31.20
2023-04-13T18:13:56.048Z,31.20
2023-04-13T18:16:03.266Z,31.20
2023-04-13T18:18:10.662Z,31.20
2023-04-13T18:20:17.544Z,31.20
2023-04-13T18:22:27.787Z,31.20
2023-04-13T18:24:34.826Z,31.20
2023-04-13T18:26:42.311Z,31.10
2023-04-13T18:28:49.213Z,31.20
2023-04-13T18:30:56.348Z,31.20
2023-04-13T18:33:03.255Z,31.10
2023-04-13T18:35:11.191Z,31.10
2023-04-13T18:37:18.067Z,31.10
2023-04-13T18:39:27.047Z,31.10
2023-04-13T18:41:34.380Z,31.10
2023-04-13T18:43:41.822Z,31.10
2023-04-13T18:45:48.944Z,31.10
2023-04-13T18:47:56.361Z,31.00
2023-04-13T18:50:03.439Z,31.00
2023-04-13T18:52:10.603Z,31.00
2023-04-13T18:54:18.073Z,31.00
2023-04-13T18:56:26.951Z,30.90
2023-04-13T18:58:33.776Z,30.90
2023-04-13T19:00:41.160Z,30.90
2023-04-13T19:02:50.361Z,30.90
2023-04-13T19:04:57.373Z,30.90
2023-04-13T19:07:05.987Z,30.80
2023-04-13T19:09:12.916Z,30.80
2023-04-13T19:11:20.730Z,30.80
2023-04-13T19:13:29.523Z,30.80
2023-04-13T19:15:36.810Z,30.80
2023-04-13T19:17:45.006Z,30.80
2023-04-13T19:19:52.192Z,30.80
2023-04-13T19:21:59.478Z,30.80
2023-04-13T19:24:07.477Z,30.80
2023-04-13T19:26:14.403Z,30.80
2023-04-13T19:28:21.790Z,30.80
2023-04-13T19:30:30.354Z,30.80
2023-04-13T19:32:37.744Z,30.80
2023-04-13T19:34:44.718Z,30.80
2023-04-13T19:36:52.065Z,30.80
2023-04-13T19:38:58.928Z,30.80
2023-04-13T19:41:06.174Z,30.80
2023-04-13T19:43:13.084Z,30.80
2023-04-13T19:45:20.473Z,30.80
2023-04-13T19:47:29.091Z,30.80
2023-04-13T19:49:36.394Z,30.80
2023-04-13T19:51:43.858Z,30.70
2023-04-13T19:53:51.450Z,30.70
2023-04-13T19:55:58.281Z,30.70
2023-04-13T19:58:05.606Z,30.70
2023-04-13T20:00:21.083Z,30.70
2023-04-13T20:02:30.021Z,30.70
2023-04-13T20:04:37.186Z,30.60
2023-04-13T20:06:44.477Z,30.60
2023-04-13T20:08:51.405Z,30.60
2023-04-13T20:10:59.842Z,30.60
2023-04-13T20:13:06.939Z,30.70
2023-04-13T20:15:14.478Z,30.60
2023-04-13T20:17:21.324Z,30.60
2023-04-13T20:19:30.197Z,30.60
2023-04-13T20:21:37.148Z,30.50
2023-04-13T20:23:44.277Z,30.60
2023-04-13T20:25:51.097Z,30.50
2023-04-13T20:27:58.333Z,30.50
2023-04-13T20:30:05.579Z,30.50
2023-04-13T20:32:12.696Z,30.50
2023-04-13T20:34:21.270Z,30.50
2023-04-13T20:36:30.131Z,30.50
2023-04-13T20:38:37.411Z,30.50
2023-04-13T20:40:46.852Z,30.50
2023-04-13T20:42:54.030Z,30.50
2023-04-13T20:45:01.267Z,30.40
2023-04-13T20:47:08.417Z,30.40
2023-04-13T20:49:16.141Z,30.40
2023-04-13T20:51:27.061Z,30.40
2023-04-13T20:53:36.839Z,30.40
2023-04-13T20:55:44.703Z,30.40
2023-04-13T20:57:52.670Z,30.40
2023-04-13T20:59:59.734Z,30.50
2023-04-13T21:02:07.819Z,30.40
2023-04-13T21:04:14.780Z,30.40
2023-04-13T21:06:23.644Z,30.40
2023-04-13T21:08:30.664Z,30.40
2023-04-13T21:10:39.334Z,30.40
2023-04-13T21:12:46.253Z,30.50
2023-04-13T21:14:53.178Z,30.40
2023-04-13T21:17:00.128Z,30.40
2023-04-13T21:19:07.333Z,30.30
2023-04-13T21:21:14.211Z,30.30
2023-04-13T21:23:21.291Z,30.30
2023-04-13T21:25:29.034Z,30.30
2023-04-13T21:27:38.262Z,30.30
2023-04-13T21:29:46.109Z,30.30
2023-04-13T21:31:53.373Z,30.30
2023-04-13T21:34:00.986Z,30.30
2023-04-13T21:38:21.637Z,30.30
2023-04-13T21:40:28.766Z,30.30
2023-04-13T21:42:37.954Z,30.20
2023-04-13T21:44:45.084Z,30.20
2023-04-13T21:46:52.469Z,30.20
2023-04-13T21:48:59.918Z,30.10
2023-04-13T21:51:08.163Z,30.10
2023-04-13T21:53:15.344Z,30.00
2023-04-13T21:55:22.271Z,30.00
2023-04-13T21:57:29.666Z,30.00
2023-04-13T21:59:38.276Z,30.00
2023-04-13T22:01:46.706Z,30.00
2023-04-13T22:03:55.709Z,29.90
2023-04-13T22:06:02.956Z,29.90
2023-04-13T22:08:10.026Z,29.80
2023-04-13T22:10:17.099Z,29.80
2023-04-13T22:12:24.487Z,29.80
2023-04-13T22:14:31.866Z,29.80
2023-04-13T22:16:40.442Z,29.80
2023-04-13T22:18:47.628Z,29.80
2023-04-13T22:20:54.448Z,29.80
2023-04-13T22:23:01.627Z,29.80
2023-04-13T22:25:09.163Z,29.80
2023-04-13T22:27:16.500Z,29.80
2023-04-13T22:29:23.733Z,29.70
2023-04-13T22:31:31.053Z,29.70
2023-04-13T22:33:41.522Z,29.70
2023-04-13T22:35:51.520Z,29.80
2023-04-13T22:37:59.404Z,29.70
2023-04-13T22:40:06.315Z,29.70
2023-04-13T22:42:13.219Z,29.70
2023-04-13T22:44:20.093Z,29.70
2023-04-13T22:46:27.442Z,29.70
2023-04-13T22:48:35.121Z,29.70
2023-04-13T22:50:44.149Z,29.70
2023-04-13T22:52:51.071Z,29.60
2023-04-13T22:54:59.513Z,29.60
2023-04-13T22:57:06.306Z,29.60
2023-04-13T22:59:13.333Z,29.60
2023-04-13T23:01:20.528Z,29.60
2023-04-13T23:03:28.515Z,29.50
2023-04-13T23:05:36.931Z,29.50
2023-04-13T23:07:45.693Z,29.50
2023-04-13T23:09:55.289Z,29.60
2023-04-13T23:12:03.385Z,29.60
2023-04-13T23:14:10.778Z,29.60
2023-04-13T23:16:18.030Z,29.60
2023-04-13T23:18:24.928Z,29.60
2023-04-13T23:20:32.272Z,29.60
2023-04-13T23:22:38.988Z,29.60
2023-04-13T23:24:47.911Z,29.60
2023-04-13T23:26:54.735Z,29.60
2023-04-13T23:29:01.960Z,29.60
2023-04-13T23:31:09.766Z,29.60
2023-04-13T23:33:16.893Z,29.60
2023-04-13T23:35:23.764Z,29.60
2023-04-13T23:37:31.000Z,29.60
2023-04-13T23:39:38.549Z,29.70
2023-04-13T23:41:47.059Z,29.60
2023-04-13T23:43:54.491Z,29.70
2023-04-13T23:46:01.973Z,29.60
2023-04-13T23:48:09.111Z,29.70
2023-04-13T23:50:18.953Z,29.70
2023-04-13T23:52:25.832Z,29.60
2023-04-13T23:54:33.420Z,29.60
2023-04-13T23:56:40.547Z,29.60
2023-04-13T23:58:49.373Z,29.60
